Antananarivo, Madagascar
Current Conditions -  °F | °C
As of 5:30 PM on Sunday 23 Nov 2014 (Local Time) from FMMI Reporting Station
Scattered Clouds Scattered Clouds  
Wind Chill: 22°   Ceiling: Unl
Heat Index: 22°   Visibility: 6mi
Dew Point: 19°   Wind: 15mph
Humidity: 83%   Direction: 100°E
Pressure: 30.15"   Gusts: NA
Location:  18.89°S, 47.51°E
Report Text: FMMI 231430Z 10013KT 9999 SCT020CB 22/19 Q1021 TEMPO TS
Loading
Personal Weather Stations






























Interactive Weather Map New forecast layout! Learn more

10-Day Weather Forecast

Advertisements
Track Severe Weather on mobile